EINN

Shannon Airport

Airport
ICAO code
EINN
IATA Code
SNN
Summary
ICAO Region
EUR
ICAO Territory
Location

Shannon, County Clare

Serving
Shannon
Elevation
46 ft
Coordinates
52° 41' 56" N , 8° 55' 6" W
KCC
Metar
Observation
EINN 281100Z 26005KT 9999 FEW018CB SCT030 09/08 Q1009 NOSIG
Station
Shannon Airport
Date/Time
2022-11-28 11:00:00
Wind direction
260°
Wind speed
05 kts
Lowest cloud amount
few clouds
Temperature
9°C
Dew point
8°C
Humidity
93%
QNH
1009 hPa
Weather condition
n/a

Description

International airport on the west coast of Ireland. Historically a major refuelling stop and diversion airfield for transatlantic traffic. The airport is located in Shannon, County Clare, Ireland.

Climatology

Temperate Marine climate/Oceanic climate (Köppen climate classification Cfb). Moderately cool summer and comparatively warm winter with a temperature range of only 14°C. Prevailing south-westerly winds from the Atlantic Ocean.

Runways

Designator Length Width Surface Rops
8/26 1465 45 PEM No/No
18/36 1713 45 PEM No/No
13/31 1720 45 ASP Yes/Yes
4/22 1970 60 PEM No/No
6/24 3199 45 ASP Yes/Yes

SKYbrary Partners:

Safety knowledge contributed by: